Time;durP1;ratioP1;P1;durP2;ratioP2;P2;SDS_P1;SDS_P2;PMS_P1;PMS_P2;Temp;Humidity;BMP_temperature;BMP_pressure;BME280_temperature;BME280_humidity;BME280_pressure;Samples;Min_cycle;Max_cycle;Signal;HPM_P1;HPM_P2
2022/07/15 00:01:00;;;;;;;12.90;3.92;;;;;;;13.87;100.00;102290.97;5247095;28;20541;-71
2022/07/15 00:03:31;;;;;;;9.25;3.10;;;;;;;13.74;100.00;102296.72;5245904;28;20029;-71
2022/07/15 00:06:02;;;;;;;11.75;3.30;;;;;;;13.66;100.00;102294.81;5245003;28;20025;-70
2022/07/15 00:08:32;;;;;;;10.18;3.90;;;;;;;13.63;100.00;102299.66;5266022;28;20035;-71
2022/07/15 00:11:03;;;;;;;8.85;3.10;;;;;;;13.60;100.00;102287.28;5265986;28;20114;-70
2022/07/15 00:13:33;;;;;;;11.27;3.58;;;;;;;13.66;100.00;102289.41;5264672;28;20032;-71
2022/07/15 00:16:04;;;;;;;11.75;3.15;;;;;;;13.67;100.00;102287.56;5245093;28;20012;-71
2022/07/15 00:18:34;;;;;;;10.65;3.15;;;;;;;13.62;100.00;102289.88;5246151;28;20405;-70
2022/07/15 00:21:05;;;;;;;15.88;3.60;;;;;;;13.63;100.00;102289.69;5250931;28;20377;-71
2022/07/15 00:23:35;;;;;;;7.65;3.30;;;;;;;13.59;100.00;102284.75;5247005;28;20166;-71
2022/07/15 00:26:06;;;;;;;9.68;3.63;;;;;;;13.60;100.00;102297.22;5265501;28;20020;-71
2022/07/15 00:28:37;;;;;;;10.13;3.85;;;;;;;13.55;100.00;102292.28;5265498;28;20051;-70
2022/07/15 00:31:07;;;;;;;10.27;3.60;;;;;;;13.51;100.00;102282.84;5256457;28;20095;-70
2022/07/15 00:33:37;;;;;;;11.15;3.53;;;;;;;13.57;100.00;102276.00;5267104;28;20446;-70
2022/07/15 00:36:08;;;;;;;10.85;3.70;;;;;;;13.58;100.00;102277.69;5269530;28;20490;-71
2022/07/15 00:38:38;;;;;;;13.75;3.85;;;;;;;13.57;100.00;102273.28;5254705;28;20032;-71
2022/07/15 00:41:09;;;;;;;11.15;3.92;;;;;;;13.61;100.00;102278.22;5256475;28;20103;-71
2022/07/15 00:43:40;;;;;;;9.45;3.35;;;;;;;13.59;100.00;102277.50;5248354;28;20410;-71
2022/07/15 00:46:21;;;;;;;12.95;3.58;;;;;;;13.57;100.00;102286.78;5248130;28;20497;-71
2022/07/15 00:48:51;;;;;;;13.95;3.88;;;;;;;13.61;100.00;102282.78;5248629;28;20035;-71
2022/07/15 00:51:22;;;;;;;14.27;3.40;;;;;;;13.62;100.00;102273.69;5248402;28;20025;-70
2022/07/15 00:53:55;;;;;;;9.40;3.25;;;;;;;13.55;100.00;102273.41;5259107;28;20028;-71
2022/07/15 00:56:27;;;;;;;15.88;3.50;;;;;;;13.57;100.00;102276.00;5255447;28;20031;-71
2022/07/15 00:58:59;;;;;;;6.25;3.45;;;;;;;13.53;100.00;102272.72;5256666;28;20477;-71
2022/07/15 01:01:32;;;;;;;12.63;3.92;;;;;;;13.51;100.00;102272.06;5268938;28;20101;-70
2022/07/15 01:04:04;;;;;;;8.80;3.67;;;;;;;13.50;100.00;102270.31;5242413;28;20028;-71
2022/07/15 01:06:35;;;;;;;13.07;3.70;;;;;;;13.45;100.00;102270.81;5268922;28;20072;-71
2022/07/15 01:09:06;;;;;;;12.70;3.42;;;;;;;13.44;100.00;102276.31;5269244;28;20529;-71
2022/07/15 01:11:37;;;;;;;10.85;3.90;;;;;;;13.38;100.00;102277.78;5259599;28;20393;-70
2022/07/15 01:14:08;;;;;;;12.43;3.38;;;;;;;13.35;100.00;102277.22;5261719;28;20055;-70
2022/07/15 01:16:38;;;;;;;10.10;3.63;;;;;;;13.35;100.00;102277.22;5248167;28;20028;-71
2022/07/15 01:19:09;;;;;;;8.63;3.75;;;;;;;13.34;100.00;102281.78;5247650;28;20016;-70
2022/07/15 01:21:39;;;;;;;12.90;3.47;;;;;;;13.28;100.00;102276.13;5247723;28;20107;-71
2022/07/15 01:24:12;;;;;;;8.93;3.60;;;;;;;13.27;100.00;102287.91;5253809;28;20031;-70
2022/07/15 01:26:56;;;;;;;12.25;3.15;;;;;;;13.20;100.00;102283.09;5253372;28;20103;-71
2022/07/15 01:29:27;;;;;;;13.48;4.80;;;;;;;13.20;100.00;102285.78;5247764;28;20031;-70
2022/07/15 01:31:58;;;;;;;9.55;3.95;;;;;;;13.19;100.00;102278.69;5251278;28;20028;-70
2022/07/15 01:34:28;;;;;;;11.70;3.33;;;;;;;13.14;100.00;102278.28;5257856;28;20016;-71
2022/07/15 01:36:59;;;;;;;8.25;2.53;;;;;;;13.18;100.00;102281.53;5252493;28;20107;-70
2022/07/15 01:39:30;;;;;;;12.52;3.35;;;;;;;13.15;100.00;102287.22;5256210;28;20089;-70
2022/07/15 01:42:01;;;;;;;11.93;2.83;;;;;;;13.13;100.00;102281.13;5260233;28;20035;-70
2022/07/15 01:44:32;;;;;;;11.93;3.17;;;;;;;13.12;100.00;102282.13;5261074;28;20028;-71
2022/07/15 01:47:02;;;;;;;7.65;3.03;;;;;;;13.07;100.00;102290.66;5260782;28;20025;-70
2022/07/15 01:49:33;;;;;;;18.38;4.10;;;;;;;13.01;100.00;102287.72;5246435;28;20047;-70
2022/07/15 01:52:12;;;;;;;8.02;2.95;;;;;;;12.95;100.00;102292.69;5247291;28;20111;-70
2022/07/15 01:54:43;;;;;;;13.90;3.45;;;;;;;12.89;100.00;102295.09;5260743;28;20026;-70
2022/07/15 01:57:14;;;;;;;10.48;3.45;;;;;;;12.85;100.00;102297.25;5247245;28;20016;-70
2022/07/15 01:59:44;;;;;;;15.98;3.33;;;;;;;12.84;100.00;102300.91;5247340;28;20028;-70
2022/07/15 02:02:25;;;;;;;11.50;3.05;;;;;;;12.78;100.00;102288.06;5247297;28;20028;-71
2022/07/15 02:04:55;;;;;;;9.45;3.78;;;;;;;12.75;100.00;102292.88;5246757;28;20561;-70
2022/07/15 02:07:26;;;;;;;13.98;3.10;;;;;;;12.72;100.00;102291.34;5247216;28;20096;-71
2022/07/15 02:09:58;;;;;;;8.45;3.13;;;;;;;12.62;100.00;102291.34;5257102;28;20028;-71
2022/07/15 02:12:29;;;;;;;7.90;3.47;;;;;;;12.53;100.00;102292.22;5250366;28;20020;-71
2022/07/15 02:14:59;;;;;;;14.02;3.28;;;;;;;12.47;100.00;102292.78;5247277;28;20024;-70
2022/07/15 02:17:30;;;;;;;15.77;3.53;;;;;;;12.41;100.00;102290.69;5251270;28;20035;-70
2022/07/15 02:20:00;;;;;;;12.38;3.60;;;;;;;12.34;100.00;102284.16;5261550;28;20119;-71
2022/07/15 02:22:31;;;;;;;10.70;3.30;;;;;;;12.40;100.00;102287.13;5257270;28;20064;-71
2022/07/15 02:25:01;;;;;;;12.32;2.92;;;;;;;12.41;100.00;102296.06;5246885;28;20111;-70
2022/07/15 02:27:32;;;;;;;9.48;3.42;;;;;;;12.38;100.00;102296.34;5246813;28;20025;-70
2022/07/15 02:30:03;;;;;;;11.75;3.25;;;;;;;12.35;100.00;102296.59;5246542;28;20297;-70
2022/07/15 02:32:33;;;;;;;7.72;3.05;;;;;;;12.28;100.00;102293.66;5246918;28;20029;-70
2022/07/15 02:35:04;;;;;;;17.13;3.50;;;;;;;12.24;100.00;102302.13;5248999;28;20046;-70
2022/07/15 02:37:35;;;;;;;11.18;3.30;;;;;;;12.19;100.00;102308.78;5257769;28;20430;-70
2022/07/15 02:40:06;;;;;;;14.63;3.38;;;;;;;12.10;100.00;102300.75;5246242;28;20111;-70
2022/07/15 02:42:36;;;;;;;18.25;3.88;;;;;;;12.00;100.00;102307.94;5257908;28;20032;-70
2022/07/15 02:45:07;;;;;;;6.88;2.95;;;;;;;11.92;100.00;102319.41;5248343;28;20474;-70
2022/07/15 02:47:37;;;;;;;12.35;3.33;;;;;;;11.84;100.00;102319.22;5247913;28;20565;-70
2022/07/15 02:50:08;;;;;;;9.90;3.40;;;;;;;11.76;100.00;102325.28;5266386;28;20031;-70
2022/07/15 02:52:39;;;;;;;10.40;3.50;;;;;;;11.67;100.00;102326.94;5253365;28;20108;-70
2022/07/15 02:55:10;;;;;;;6.68;3.58;;;;;;;11.59;100.00;102329.47;5265912;28;20028;-70
2022/07/15 02:57:41;;;;;;;9.30;3.30;;;;;;;11.53;100.00;102321.09;5246411;28;20024;-70
2022/07/15 03:00:17;;;;;;;13.63;3.30;;;;;;;11.44;100.00;102328.13;5246192;28;20028;-70
2022/07/15 03:02:48;;;;;;;12.88;3.58;;;;;;;11.37;100.00;102325.16;5245915;28;20016;-70
2022/07/15 03:05:19;;;;;;;8.85;3.22;;;;;;;11.32;100.00;102331.94;5255678;28;20482;-70
2022/07/15 03:07:50;;;;;;;8.05;3.60;;;;;;;11.25;100.00;102325.41;5261816;28;20028;-71
2022/07/15 03:10:21;;;;;;;8.43;3.28;;;;;;;11.18;100.00;102330.44;5258871;28;20089;-72
2022/07/15 03:12:52;;;;;;;7.90;3.28;;;;;;;11.10;100.00;102335.66;5246398;28;20028;-70
2022/07/15 03:15:22;;;;;;;8.15;3.47;;;;;;;11.02;100.00;102336.31;5259100;28;20024;-71
2022/07/15 03:17:53;;;;;;;12.98;3.22;;;;;;;10.93;100.00;102337.09;5253724;28;20097;-71
2022/07/15 03:20:23;;;;;;;7.32;3.58;;;;;;;10.79;100.00;102332.94;5253049;28;20486;-71
2022/07/15 03:22:54;;;;;;;10.93;2.65;;;;;;;10.64;100.00;102336.91;5254368;28;20028;-70
2022/07/15 03:25:24;;;;;;;5.63;3.00;;;;;;;10.46;100.00;102336.63;5258982;28;20127;-72
2022/07/15 03:27:55;;;;;;;4.22;2.33;;;;;;;10.30;100.00;102341.59;5245763;28;20029;-71
2022/07/15 03:30:26;;;;;;;8.77;3.15;;;;;;;10.15;100.00;102343.69;5250017;28;20119;-70
2022/07/15 03:32:56;;;;;;;7.00;2.53;;;;;;;10.06;100.00;102341.75;5254427;28;20099;-71
2022/07/15 03:35:27;;;;;;;8.40;3.58;;;;;;;9.96;100.00;102344.34;5245222;28;20025;-71
2022/07/15 03:37:58;;;;;;;9.38;4.50;;;;;;;9.88;100.00;102341.44;5245774;28;20024;-71
2022/07/15 03:40:29;;;;;;;15.73;4.72;;;;;;;9.83;100.00;102344.47;5232097;28;20390;-71
2022/07/15 03:42:59;;;;;;;13.02;4.50;;;;;;;9.80;100.00;102350.09;5259909;28;20501;-71
2022/07/15 03:45:30;;;;;;;10.25;3.72;;;;;;;9.76;100.00;102345.97;5257694;28;20031;-69
2022/07/15 03:48:02;;;;;;;7.88;4.22;;;;;;;9.71;100.00;102347.31;5245307;28;20160;-71
2022/07/15 03:50:33;;;;;;;27.83;4.18;;;;;;;9.66;100.00;102350.38;5255474;28;20161;-71
2022/07/15 03:53:03;;;;;;;6.68;3.75;;;;;;;9.57;100.00;102354.63;5247320;28;20481;-71
2022/07/15 03:55:36;;;;;;;13.50;4.00;;;;;;;9.52;100.00;102353.31;5244975;28;20059;-69
2022/07/15 03:58:06;;;;;;;14.05;6.32;;;;;;;9.49;100.00;102351.72;5264480;28;20020;-69
2022/07/15 04:00:37;;;;;;;11.50;4.47;;;;;;;9.50;100.00;102355.25;5253741;28;20051;-69
2022/07/15 04:03:07;;;;;;;7.85;4.60;;;;;;;9.52;100.00;102354.16;5238300;28;20103;-69
2022/07/15 04:05:39;;;;;;;11.02;4.85;;;;;;;9.56;100.00;102350.25;5239517;28;20028;-69
2022/07/15 04:08:10;;;;;;;14.05;5.40;;;;;;;9.60;100.00;102350.88;5258145;28;20088;-69
2022/07/15 04:10:40;;;;;;;14.60;5.20;;;;;;;9.66;100.00;102354.88;5268101;28;20118;-69
2022/07/15 04:13:11;;;;;;;15.85;4.97;;;;;;;9.70;100.00;102356.34;5249284;28;20074;-69
2022/07/15 04:15:41;;;;;;;17.80;5.05;;;;;;;9.77;100.00;102360.22;5253113;28;20031;-69
2022/07/15 04:18:12;;;;;;;16.60;5.63;;;;;;;9.81;100.00;102362.53;5259129;28;20401;-69
2022/07/15 04:20:42;;;;;;;8.63;4.45;;;;;;;9.86;100.00;102356.78;5253940;28;20020;-69
2022/07/15 04:23:13;;;;;;;10.23;4.07;;;;;;;9.89;100.00;102351.19;5249199;28;20020;-69
2022/07/15 04:25:44;;;;;;;10.13;4.25;;;;;;;9.93;100.00;102357.13;5254429;28;20059;-69
2022/07/15 04:28:14;;;;;;;9.80;4.18;;;;;;;9.96;100.00;102356.91;5256950;28;20024;-69
2022/07/15 04:30:45;;;;;;;14.63;4.20;;;;;;;9.96;100.00;102355.06;5248597;28;20039;-69
2022/07/15 04:33:16;;;;;;;15.55;4.93;;;;;;;9.99;100.00;102365.56;5249588;28;20017;-69
2022/07/15 04:35:46;;;;;;;15.23;5.15;;;;;;;10.04;100.00;102373.19;5269711;28;20477;-69
2022/07/15 04:38:17;;;;;;;11.55;4.22;;;;;;;10.05;100.00;102365.03;5254152;28;20031;-69
2022/07/15 04:40:47;;;;;;;10.70;4.07;;;;;;;10.09;100.00;102368.31;5258496;28;20108;-69
2022/07/15 04:43:18;;;;;;;12.02;4.47;;;;;;;10.17;100.00;102371.22;5269206;28;20035;-70
2022/07/15 04:45:48;;;;;;;12.38;5.47;;;;;;;10.29;100.00;102374.72;5258874;28;20107;-70
2022/07/15 04:51:08;;;;;;;8.65;4.60;;;;;;;10.59;100.00;102382.06;5262395;28;20055;-69
2022/07/15 04:53:38;;;;;;;10.70;4.05;;;;;;;10.71;100.00;102383.72;5248257;28;20566;-70
2022/07/15 04:56:09;;;;;;;7.32;4.00;;;;;;;10.82;100.00;102380.13;5250662;28;20024;-69
2022/07/15 04:58:40;;;;;;;12.85;4.22;;;;;;;10.92;100.00;102382.88;5269412;28;20024;-70
2022/07/15 05:01:10;;;;;;;11.25;4.82;;;;;;;11.01;100.00;102376.72;5255882;28;20032;-70
2022/07/15 05:03:42;;;;;;;12.35;4.30;;;;;;;11.07;100.00;102368.13;5246975;28;20028;-69
2022/07/15 05:06:12;;;;;;;12.20;4.88;;;;;;;11.12;100.00;102373.97;5264819;28;20182;-70
2022/07/15 05:08:42;;;;;;;15.85;4.72;;;;;;;11.19;100.00;102371.59;5268126;28;20111;-70
2022/07/15 05:11:13;;;;;;;12.27;4.90;;;;;;;11.27;100.00;102369.09;5262610;28;20044;-70
2022/07/15 05:13:44;;;;;;;7.68;4.10;;;;;;;11.33;100.00;102372.09;5247899;28;20025;-70
2022/07/15 05:16:14;;;;;;;10.88;5.00;;;;;;;11.38;100.00;102372.53;5261402;28;20519;-70
2022/07/15 05:18:45;;;;;;;13.27;4.45;;;;;;;11.43;100.00;102373.97;5260031;28;20024;-70
2022/07/15 05:21:16;;;;;;;13.50;5.20;;;;;;;11.41;100.00;102366.06;5247811;28;20134;-70
2022/07/15 05:23:46;;;;;;;11.77;4.47;;;;;;;11.39;100.00;102371.53;5247717;28;20025;-70
2022/07/15 05:26:18;;;;;;;11.23;4.90;;;;;;;11.43;100.00;102364.06;5247833;28;20382;-70
2022/07/15 05:28:49;;;;;;;12.57;5.15;;;;;;;11.49;100.00;102365.34;5251533;28;20404;-70
2022/07/15 05:31:21;;;;;;;14.27;5.40;;;;;;;11.59;100.00;102371.63;5257363;28;20020;-70
2022/07/15 05:33:53;;;;;;;20.17;5.30;;;;;;;11.72;100.00;102374.09;5247721;28;20064;-70
2022/07/15 05:36:23;;;;;;;15.25;5.50;;;;;;;11.83;100.00;102377.53;5259423;28;20016;-70
2022/07/15 05:38:53;;;;;;;12.20;5.57;;;;;;;11.99;100.00;102378.84;5254914;28;20137;-70
2022/07/15 05:41:24;;;;;;;18.58;6.00;;;;;;;12.17;100.00;102378.03;5254805;28;20065;-70
2022/07/15 05:43:54;;;;;;;20.15;5.80;;;;;;;12.33;100.00;102377.50;5268452;28;20024;-70
2022/07/15 05:46:25;;;;;;;15.10;5.63;;;;;;;12.49;100.00;102384.16;5266396;28;20456;-70
2022/07/15 05:48:55;;;;;;;19.42;5.53;;;;;;;12.65;100.00;102376.34;5247567;28;20036;-70
2022/07/15 05:51:26;;;;;;;16.73;5.88;;;;;;;12.85;100.00;102372.69;5247494;28;20031;-70
2022/07/15 05:53:57;;;;;;;12.68;5.28;;;;;;;13.06;100.00;102379.72;5256238;28;20020;-71
2022/07/15 05:56:28;;;;;;;13.82;4.95;;;;;;;13.23;100.00;102378.13;5261612;28;20009;-71
2022/07/15 05:58:58;;;;;;;12.85;3.40;;;;;;;13.53;100.00;102375.19;5256615;28;20100;-71
2022/07/15 06:01:29;;;;;;;13.82;4.32;;;;;;;14.00;100.00;102375.91;5247363;28;20020;-70
2022/07/15 06:03:59;;;;;;;16.48;3.40;;;;;;;14.47;100.00;102377.59;5234128;28;20490;-71
2022/07/15 06:06:30;;;;;;;15.68;3.08;;;;;;;15.26;100.00;102374.88;5259859;28;20036;-71
2022/07/15 06:09:00;;;;;;;9.68;2.72;;;;;;;16.34;100.00;102375.09;5249029;28;20020;-71
2022/07/15 06:11:31;;;;;;;7.97;2.30;;;;;;;17.97;100.00;102364.00;5258735;28;20024;-71
2022/07/15 06:14:03;;;;;;;21.27;2.53;;;;;;;18.62;100.00;102368.97;5263612;28;20349;-71
2022/07/15 06:16:34;;;;;;;5.10;1.67;;;;;;;19.29;100.00;102368.19;5257073;28;20096;-71
2022/07/15 06:19:04;;;;;;;8.13;1.88;;;;;;;19.83;100.00;102376.06;5260008;28;20035;-71
2022/07/15 06:21:35;;;;;;;5.57;1.63;;;;;;;20.75;100.00;102371.81;5246630;28;20024;-72
2022/07/15 06:24:06;;;;;;;6.43;2.08;;;;;;;21.47;100.00;102371.50;5246998;28;20028;-72
2022/07/15 06:26:36;;;;;;;12.07;1.70;;;;;;;21.83;100.00;102371.25;5259268;28;20020;-72
2022/07/15 06:29:07;;;;;;;13.13;2.08;;;;;;;21.64;100.00;102374.75;5247261;28;20063;-71
2022/07/15 06:31:37;;;;;;;4.50;1.17;;;;;;;21.81;100.00;102377.97;5261075;28;20553;-72
2022/07/15 06:34:08;;;;;;;4.97;1.08;;;;;;;22.52;100.00;102370.19;5260281;28;20020;-72
2022/07/15 06:36:38;;;;;;;10.23;1.92;;;;;;;22.38;100.00;102373.97;5248418;28;20017;-72
2022/07/15 06:39:09;;;;;;;9.20;2.05;;;;;;;22.43;100.00;102371.44;5257911;28;20489;-72
2022/07/15 06:41:39;;;;;;;7.18;1.40;;;;;;;22.71;100.00;102366.63;5249369;28;20024;-71
2022/07/15 06:44:11;;;;;;;10.60;2.00;;;;;;;23.00;100.00;102368.13;5255216;28;20178;-72
2022/07/15 06:46:42;;;;;;;7.80;1.40;;;;;;;23.08;98.02;102366.22;5246208;28;20112;-72
2022/07/15 06:49:12;;;;;;;4.72;1.10;;;;;;;23.51;94.10;102363.81;5246387;28;20028;-72
2022/07/15 06:51:43;;;;;;;8.40;1.60;;;;;;;23.46;93.49;102369.09;5259665;28;20024;-72
2022/07/15 06:54:13;;;;;;;4.97;1.10;;;;;;;24.19;84.53;102377.00;5246122;28;20020;-72
2022/07/15 06:56:44;;;;;;;6.00;1.10;;;;;;;25.35;70.69;102375.69;5251951;28;20363;-72
2022/07/15 06:59:15;;;;;;;5.28;1.00;;;;;;;24.52;70.31;102380.41;5265544;28;20028;-72
2022/07/15 07:01:45;;;;;;;6.20;1.05;;;;;;;23.31;77.53;102373.97;5266815;28;20022;-71
2022/07/15 07:04:16;;;;;;;4.97;1.35;;;;;;;23.09;86.49;102370.63;5236752;28;20101;-72
2022/07/15 07:06:46;;;;;;;4.13;1.15;;;;;;;23.72;74.06;102368.19;5245791;28;20032;-72
2022/07/15 07:09:16;;;;;;;5.75;1.17;;;;;;;22.50;90.00;102366.84;5245694;28;20029;-72
2022/07/15 07:11:47;;;;;;;4.82;1.50;;;;;;;22.43;90.79;102374.19;5257448;28;20020;-73
2022/07/15 07:14:18;;;;;;;7.80;1.23;;;;;;;22.71;90.79;102374.84;5266622;28;20066;-72
2022/07/15 07:16:49;;;;;;;3.58;1.17;;;;;;;23.41;87.24;102375.22;5254420;28;20021;-70
2022/07/15 07:19:19;;;;;;;4.28;1.10;;;;;;;24.09;79.97;102382.13;5245455;28;20051;-70
2022/07/15 07:21:50;;;;;;;2.60;0.90;;;;;;;24.61;75.63;102386.47;5246321;28;20016;-71
2022/07/15 07:24:20;;;;;;;5.43;1.05;;;;;;;25.70;66.86;102384.16;5266669;28;20028;-70
2022/07/15 07:26:51;;;;;;;5.82;0.98;;;;;;;24.49;70.24;102385.50;5251170;28;20494;-70
2022/07/15 07:29:23;;;;;;;3.40;1.00;;;;;;;23.38;79.89;102383.00;5254999;28;20032;-70
2022/07/15 07:31:53;;;;;;;6.85;1.88;;;;;;;23.41;76.41;102386.16;5265978;28;20028;-70
2022/07/15 07:34:24;;;;;;;8.60;1.13;;;;;;;23.12;79.45;102383.91;5255962;28;20496;-70
2022/07/15 07:36:54;;;;;;;5.15;1.10;;;;;;;23.60;83.78;102380.88;5244855;28;20473;-70
2022/07/15 07:39:25;;;;;;;2.63;1.02;;;;;;;24.93;72.44;102384.50;5256131;28;20020;-70
2022/07/15 07:41:55;;;;;;;10.13;1.58;;;;;;;24.98;67.87;102383.84;5251544;28;20470;-70
2022/07/15 07:44:26;;;;;;;4.18;0.90;;;;;;;24.32;70.99;102384.34;5264920;28;20126;-70
2022/07/15 07:46:57;;;;;;;5.15;1.08;;;;;;;23.56;72.00;102383.19;5246292;28;20024;-70
2022/07/15 07:49:27;;;;;;;5.63;0.95;;;;;;;22.38;75.52;102391.19;5258216;28;20054;-70
2022/07/15 07:51:58;;;;;;;6.22;1.10;;;;;;;21.36;87.13;102383.84;5252305;28;20035;-70
2022/07/15 07:54:29;;;;;;;2.72;1.02;;;;;;;21.73;98.17;102381.72;5250220;28;20028;-70
2022/07/15 07:57:00;;;;;;;2.92;1.00;;;;;;;22.73;80.51;102380.09;5252946;28;20016;-70
2022/07/15 07:59:31;;;;;;;6.72;1.10;;;;;;;23.79;70.79;102379.94;5263008;28;20071;-70
2022/07/15 08:02:01;;;;;;;4.00;0.95;;;;;;;24.63;65.89;102389.00;5244578;28;20020;-70
2022/07/15 08:04:32;;;;;;;4.80;0.95;;;;;;;24.75;64.11;102389.94;5249417;28;20438;-70
2022/07/15 08:07:02;;;;;;;3.17;0.70;;;;;;;24.29;70.16;102393.81;5253079;28;20024;-70
2022/07/15 08:09:33;;;;;;;1.38;0.60;;;;;;;25.10;63.99;102392.19;5244332;28;20377;-70
2022/07/15 08:12:04;;;;;;;3.00;0.70;;;;;;;25.40;62.30;102392.31;5244522;28;20032;-70
2022/07/15 08:14:34;;;;;;;4.53;0.82;;;;;;;25.54;58.69;102393.84;5244043;28;20028;-70
2022/07/15 08:17:05;;;;;;;3.60;0.90;;;;;;;25.28;56.59;102397.72;5243484;28;20114;-70
2022/07/15 08:19:35;;;;;;;4.43;0.95;;;;;;;24.49;63.57;102404.69;5244957;28;20097;-70
2022/07/15 08:22:06;;;;;;;2.63;0.60;;;;;;;24.75;58.63;102400.91;5246656;28;20148;-70
2022/07/15 08:24:36;;;;;;;3.90;1.05;;;;;;;24.10;60.58;102392.03;5255274;28;20032;-70
2022/07/15 08:27:08;;;;;;;2.60;0.90;;;;;;;22.82;65.03;102384.31;5248069;28;20069;-70
2022/07/15 08:29:38;;;;;;;6.43;1.05;;;;;;;22.39;69.89;102383.84;5253656;28;20035;-70
2022/07/15 08:32:09;;;;;;;4.82;0.82;;;;;;;23.26;64.92;102378.19;5244280;28;20612;-70
2022/07/15 08:34:41;;;;;;;3.85;0.88;;;;;;;23.57;69.45;102379.38;5256368;28;20046;-70
2022/07/15 08:37:12;;;;;;;3.90;0.95;;;;;;;24.13;69.98;102386.13;5245172;28;20021;-70
2022/07/15 08:39:43;;;;;;;2.97;0.82;;;;;;;25.45;59.26;102376.84;5244204;28;20033;-70
2022/07/15 08:42:13;;;;;;;6.50;1.83;;;;;;;25.49;60.96;102364.31;5252175;28;20026;-70
2022/07/15 08:44:44;;;;;;;4.38;1.05;;;;;;;25.41;63.66;102370.13;5262774;28;20476;-70
2022/07/15 08:47:16;;;;;;;3.63;1.05;;;;;;;25.30;60.29;102365.38;5244101;28;20031;-70
2022/07/15 08:49:48;;;;;;;5.40;1.10;;;;;;;25.87;59.83;102368.75;5247540;28;20028;-70
2022/07/15 08:52:19;;;;;;;3.90;0.88;;;;;;;25.95;59.61;102362.91;5256011;28;20501;-70
2022/07/15 08:54:50;;;;;;;6.22;1.13;;;;;;;26.12;56.48;102365.88;5248025;28;20070;-70
2022/07/15 08:57:20;;;;;;;2.45;1.02;;;;;;;26.35;55.39;102354.94;5246083;28;20100;-70
2022/07/15 08:59:52;;;;;;;2.13;1.20;;;;;;;26.39;55.56;102354.47;5267645;28;20477;-71
2022/07/15 09:02:23;;;;;;;4.28;1.15;;;;;;;27.28;50.76;102356.13;5268210;28;20486;-71
2022/07/15 09:05:29;;;;;;;5.15;0.80;;;;;;;26.90;52.68;102364.00;5255405;28;20030;-71
2022/07/15 09:08:19;;;;;;;7.63;1.17;;;;;;;26.73;54.95;102364.72;5247635;28;20028;-71
2022/07/15 09:10:51;;;;;;;5.47;1.42;;;;;;;26.03;54.61;102361.78;5261281;28;20024;-71
2022/07/15 09:13:34;;;;;;;3.45;1.00;;;;;;;26.26;56.18;102366.53;5259203;28;20245;-71
2022/07/15 09:16:09;;;;;;;5.40;0.93;;;;;;;26.24;54.55;102364.00;5260857;28;20021;-71
2022/07/15 09:18:43;;;;;;;5.00;0.95;;;;;;;26.40;54.72;102359.72;5247548;28;20323;-71
2022/07/15 09:21:29;;;;;;;3.35;0.70;;;;;;;26.67;55.04;102357.44;5247686;28;20024;-71
2022/07/15 09:24:17;;;;;;;3.05;0.93;;;;;;;27.04;52.69;102355.28;5263717;28;20390;-71
2022/07/15 09:26:47;;;;;;;6.07;1.13;;;;;;;27.56;49.36;102354.50;5252952;28;20028;-71
2022/07/15 09:38:07;;;;;;;3.40;0.98;;;;;;;25.73;58.38;102347.97;5266711;28;20023;-71
2022/07/15 09:40:48;;;;;;;7.03;1.23;;;;;;;26.38;53.32;102344.53;5247101;28;20540;-71
2022/07/15 09:43:19;;;;;;;2.08;0.65;;;;;;;26.23;54.16;102350.47;5263973;28;20027;-71
2022/07/15 09:46:01;;;;;;;5.85;1.10;;;;;;;26.09;54.34;102349.81;5256045;28;20023;-71
2022/07/15 09:48:39;;;;;;;7.18;1.48;;;;;;;25.84;57.81;102344.47;5248528;28;20031;-71
2022/07/15 09:51:10;;;;;;;2.33;0.80;;;;;;;26.40;50.92;102350.63;5248933;28;20482;-71
2022/07/15 09:53:42;;;;;;;2.53;0.85;;;;;;;25.40;51.19;102356.59;5267412;28;20031;-70
2022/07/15 09:56:21;;;;;;;1.38;0.73;;;;;;;24.83;52.89;102355.91;5252144;28;20091;-71
2022/07/15 09:58:52;;;;;;;6.40;1.23;;;;;;;24.68;56.19;102357.06;5267651;28;20039;-71
2022/07/15 10:01:26;;;;;;;1.48;0.50;;;;;;;25.19;57.92;102347.75;5248429;28;20138;-71
2022/07/15 10:03:57;;;;;;;3.92;0.82;;;;;;;25.91;56.94;102347.97;5232235;28;20147;-70
2022/07/15 10:06:28;;;;;;;6.75;1.13;;;;;;;25.79;54.10;102345.16;5240495;28;20111;-71
2022/07/15 10:08:59;;;;;;;5.53;0.90;;;;;;;26.01;53.30;102348.25;5252390;28;20024;-71
2022/07/15 10:11:31;;;;;;;4.68;0.90;;;;;;;26.54;50.16;102344.72;5255569;28;20079;-71
2022/07/15 10:14:20;;;;;;;2.97;0.73;;;;;;;26.50;48.22;102339.91;5267078;28;20028;-71
2022/07/15 10:17:14;;;;;;;5.40;0.68;;;;;;;25.77;50.77;102324.50;5254498;28;20030;-71
2022/07/15 10:20:21;;;;;;;6.82;1.33;;;;;;;25.43;49.03;102321.28;5235132;28;20055;-71
2022/07/15 10:23:26;;;;;;;4.28;0.65;;;;;;;25.26;51.82;102323.81;5245919;28;20032;-71
2022/07/15 10:26:16;;;;;;;2.15;0.55;;;;;;;25.51;49.70;102326.47;5259238;28;20032;-71
2022/07/15 10:29:03;;;;;;;3.75;0.52;;;;;;;25.13;50.10;102323.94;5245534;28;20028;-71
2022/07/15 10:31:37;;;;;;;1.58;0.55;;;;;;;25.21;51.98;102318.16;5246145;28;20111;-71
2022/07/15 10:34:28;;;;;;;4.25;0.70;;;;;;;25.36;54.84;102316.94;5253506;28;20508;-71
2022/07/15 10:37:01;;;;;;;3.15;0.65;;;;;;;25.99;53.56;102311.06;5266884;28;20023;-71
2022/07/15 10:39:52;;;;;;;1.63;0.55;;;;;;;26.38;49.63;102315.13;5255073;28;20024;-71
2022/07/15 10:42:23;;;;;;;1.52;0.55;;;;;;;26.49;49.17;102308.81;5234276;28;20047;-71
2022/07/15 10:45:13;;;;;;;3.15;0.65;;;;;;;25.73;49.63;102302.09;5261640;28;20379;-71
2022/07/15 10:47:44;;;;;;;5.13;0.85;;;;;;;24.88;52.04;102292.94;5252172;28;20020;-70
2022/07/15 10:50:35;;;;;;;3.70;0.80;;;;;;;24.51;52.73;102290.97;5245692;28;20394;-70
2022/07/15 10:53:19;;;;;;;4.00;0.68;;;;;;;24.55;52.43;102288.63;5259210;28;20044;-71
2022/07/15 10:55:51;;;;;;;4.68;0.93;;;;;;;24.88;53.06;102287.44;5244548;28;20020;-71
2022/07/15 10:58:21;;;;;;;3.95;0.90;;;;;;;25.18;51.77;102282.06;5251803;28;20085;-71
2022/07/15 11:00:52;;;;;;;5.65;0.88;;;;;;;25.30;53.03;102280.22;5252624;28;20025;-71
2022/07/15 11:03:23;;;;;;;4.55;1.13;;;;;;;25.63;50.86;102276.22;5236649;28;20032;-71
2022/07/15 11:05:53;;;;;;;3.55;0.90;;;;;;;25.54;49.83;102282.03;5240082;28;20379;-71
2022/07/15 11:08:43;;;;;;;2.92;0.60;;;;;;;25.41;50.16;102276.72;5255352;28;20507;-71
2022/07/15 11:11:14;;;;;;;3.83;0.65;;;;;;;25.04;51.95;102284.09;5252527;28;20020;-71
2022/07/15 11:13:46;;;;;;;4.03;0.88;;;;;;;23.98;49.56;102287.72;5252197;28;20386;-70
2022/07/15 11:16:20;;;;;;;10.95;0.98;;;;;;;23.72;50.60;102286.84;5243951;28;20020;-71
2022/07/15 11:18:54;;;;;;;4.03;0.63;;;;;;;24.04;53.64;102275.88;5244988;28;20417;-71
2022/07/15 11:21:24;;;;;;;2.63;0.63;;;;;;;24.58;54.84;102276.34;5244785;28;20090;-71
2022/07/15 11:23:59;;;;;;;1.70;0.80;;;;;;;25.28;53.03;102280.47;5245160;28;20029;-71
2022/07/15 11:26:48;;;;;;;1.23;0.60;;;;;;;26.03;49.21;102280.13;5244530;28;20025;-71
2022/07/15 11:29:18;;;;;;;2.22;0.75;;;;;;;26.54;50.45;102281.41;5244780;28;20020;-71
2022/07/15 11:31:51;;;;;;;3.78;1.30;;;;;;;26.98;48.03;102279.13;5245211;28;20027;-71
2022/07/15 11:34:21;;;;;;;2.63;0.75;;;;;;;26.74;47.25;102283.81;5244579;28;20182;-71
2022/07/15 11:37:12;;;;;;;4.13;0.88;;;;;;;26.06;47.33;102284.31;5257632;28;20099;-71
2022/07/15 11:39:42;;;;;;;3.47;0.60;;;;;;;25.46;48.91;102282.38;5258437;28;20069;-71
2022/07/15 11:45:36;;;;;;;1.77;0.70;;;;;;;25.45;49.60;102277.09;5244301;28;20537;-71
2022/07/15 11:48:07;;;;;;;2.33;0.80;;;;;;;25.31;50.67;102277.28;5245072;28;20024;-71
2022/07/15 11:50:49;;;;;;;3.47;1.00;;;;;;;25.15;51.96;102277.03;5245004;28;20024;-71
2022/07/15 11:53:20;;;;;;;2.92;0.70;;;;;;;25.36;52.09;102265.59;5258241;28;20036;-71
2022/07/15 11:55:56;;;;;;;3.13;0.77;;;;;;;25.65;52.27;102274.06;5243986;28;20012;-71
2022/07/15 11:58:29;;;;;;;4.72;1.10;;;;;;;25.49;48.88;102265.41;5244401;28;20032;-71